createdAt,value
2018-03-24T00:00:10.107Z,15.80
2018-03-24T00:02:37.710Z,20.27
2018-03-24T00:05:05.333Z,17.33
2018-03-24T00:07:32.878Z,15.00
2018-03-24T00:10:00.421Z,13.87
2018-03-24T00:12:28.032Z,14.30
2018-03-24T00:14:55.592Z,16.20
2018-03-24T00:17:23.140Z,15.87
2018-03-24T00:19:50.780Z,13.17
2018-03-24T00:22:19.611Z,12.67
2018-03-24T00:24:47.198Z,13.17
2018-03-24T00:27:14.757Z,13.20
2018-03-24T00:29:42.348Z,15.07
2018-03-24T00:32:09.983Z,18.80
2018-03-24T00:34:37.569Z,13.50
2018-03-24T00:37:05.141Z,12.80
2018-03-24T00:39:32.791Z,13.70
2018-03-24T00:42:00.350Z,13.43
2018-03-24T00:44:27.909Z,10.70
2018-03-24T00:46:55.512Z,12.17
2018-03-24T00:49:23.069Z,13.70
2018-03-24T00:51:51.508Z,12.07
2018-03-24T00:54:20.187Z,12.13
2018-03-24T00:56:48.125Z,13.20
2018-03-24T00:59:15.724Z,12.00
2018-03-24T01:01:43.320Z,12.27
2018-03-24T01:04:10.864Z,12.27
2018-03-24T01:06:38.464Z,13.00
2018-03-24T01:09:06.047Z,14.40
2018-03-24T01:11:33.592Z,11.53
2018-03-24T01:14:01.183Z,11.13
2018-03-24T01:16:28.772Z,10.77
2018-03-24T01:18:56.369Z,11.97
2018-03-24T01:21:24.419Z,9.60
2018-03-24T01:23:52.004Z,12.33
2018-03-24T01:26:19.587Z,10.23
2018-03-24T01:28:47.802Z,11.80
2018-03-24T01:31:15.363Z,10.40
2018-03-24T01:33:42.899Z,10.97
2018-03-24T01:36:10.623Z,11.33
2018-03-24T01:38:38.214Z,11.47
2018-03-24T01:41:06.687Z,10.63
2018-03-24T01:43:34.277Z,11.33
2018-03-24T01:46:01.831Z,11.17
2018-03-24T01:48:29.428Z,10.50
2018-03-24T01:50:56.977Z,9.97
2018-03-24T01:53:36.253Z,9.63
2018-03-24T01:56:04.139Z,10.67
2018-03-24T01:58:31.742Z,10.20
2018-03-24T02:00:59.287Z,10.80
2018-03-24T02:03:26.842Z,11.03
2018-03-24T02:05:54.991Z,9.77
2018-03-24T02:08:22.568Z,10.10
2018-03-24T02:10:50.104Z,8.43
2018-03-24T02:13:17.963Z,8.63
2018-03-24T02:15:45.552Z,9.47
2018-03-24T02:18:13.142Z,10.40
2018-03-24T02:20:41.125Z,8.93
2018-03-24T02:23:09.012Z,9.53
2018-03-24T02:25:36.617Z,8.53
2018-03-24T02:28:04.171Z,12.17
2018-03-24T02:30:32.697Z,10.60
2018-03-24T02:33:00.246Z,9.70
2018-03-24T02:35:27.841Z,10.23
2018-03-24T02:37:55.380Z,8.43
2018-03-24T02:40:22.985Z,8.47
2018-03-24T02:42:50.706Z,7.63
2018-03-24T02:45:18.258Z,8.47
2018-03-24T02:47:45.848Z,6.90
2018-03-24T02:50:13.396Z,8.23
2018-03-24T02:52:40.998Z,6.27
2018-03-24T02:55:08.948Z,6.80
2018-03-24T02:57:37.279Z,6.43
2018-03-24T03:00:04.885Z,7.03
2018-03-24T03:02:32.467Z,6.30
2018-03-24T03:05:00.009Z,6.57
2018-03-24T03:07:28.161Z,6.30
2018-03-24T03:09:55.717Z,6.07
2018-03-24T03:12:23.797Z,6.90
2018-03-24T03:14:51.381Z,6.03
2018-03-24T03:17:18.973Z,5.90
2018-03-24T03:19:46.590Z,7.33
2018-03-24T03:22:14.153Z,5.87
2018-03-24T03:24:42.187Z,6.07
2018-03-24T03:27:09.759Z,5.73
2018-03-24T03:29:37.300Z,5.87
2018-03-24T03:32:07.452Z,5.77
2018-03-24T03:34:35.045Z,6.30
2018-03-24T03:37:02.584Z,5.57
2018-03-24T03:39:30.177Z,6.00
2018-03-24T03:41:57.721Z,7.27
2018-03-24T03:44:25.281Z,5.90
2018-03-24T03:46:52.881Z,5.03
2018-03-24T03:49:20.473Z,5.60
2018-03-24T03:51:48.069Z,6.13
2018-03-24T03:54:16.151Z,5.80
2018-03-24T03:56:43.744Z,6.13
2018-03-24T03:59:11.287Z,5.43
2018-03-24T04:01:39.897Z,6.17
2018-03-24T04:04:07.487Z,5.57
2018-03-24T04:06:35.036Z,6.60
2018-03-24T04:09:02.648Z,6.83
2018-03-24T04:11:30.752Z,8.63
2018-03-24T04:13:59.114Z,7.70
2018-03-24T04:16:26.708Z,9.30
2018-03-24T04:18:54.242Z,7.83
2018-03-24T04:21:21.827Z,8.40
2018-03-24T04:23:49.412Z,9.90
2018-03-24T04:26:17.017Z,10.90
2018-03-24T04:28:44.952Z,10.63
2018-03-24T04:31:12.497Z,10.07
2018-03-24T04:33:40.539Z,10.67
2018-03-24T04:36:08.506Z,11.47
2018-03-24T04:38:36.774Z,15.17
2018-03-24T04:41:04.332Z,13.50
2018-03-24T04:43:31.925Z,16.37
2018-03-24T04:45:59.476Z,14.63
2018-03-24T04:48:27.027Z,15.43
2018-03-24T04:50:54.625Z,16.87
2018-03-24T04:53:22.167Z,19.10
2018-03-24T04:55:49.818Z,22.87
2018-03-24T04:58:17.373Z,15.80
2018-03-24T05:00:44.963Z,14.83
2018-03-24T05:03:12.617Z,14.03
2018-03-24T05:05:40.208Z,14.53
2018-03-24T05:08:07.768Z,14.17
2018-03-24T05:10:35.370Z,13.27
2018-03-24T05:13:02.960Z,12.57
2018-03-24T05:15:31.523Z,11.40
2018-03-24T05:17:59.119Z,12.70
2018-03-24T05:20:26.704Z,12.43
2018-03-24T05:22:54.296Z,13.57
2018-03-24T05:25:21.853Z,13.30
2018-03-24T05:27:50.349Z,13.13
2018-03-24T05:30:18.372Z,15.13
2018-03-24T05:32:46.573Z,13.30
2018-03-24T05:35:14.159Z,18.77
2018-03-24T05:37:41.958Z,18.30
2018-03-24T05:40:09.564Z,14.00
2018-03-24T05:42:37.124Z,14.73
2018-03-24T05:45:04.714Z,16.30
2018-03-24T05:47:32.725Z,19.73
2018-03-24T05:50:00.892Z,16.03
2018-03-24T05:52:28.439Z,18.73
2018-03-24T05:54:57.381Z,23.63
2018-03-24T05:57:24.927Z,25.53
2018-03-24T05:59:54.398Z,22.47
2018-03-24T06:02:21.999Z,28.93
2018-03-24T06:04:49.543Z,34.17
2018-03-24T06:07:17.147Z,35.47
2018-03-24T06:09:45.843Z,25.87
2018-03-24T06:12:13.444Z,17.30
2018-03-24T06:14:41.845Z,19.43
2018-03-24T06:17:09.436Z,27.07
2018-03-24T06:19:36.971Z,21.13
2018-03-24T06:22:04.627Z,17.93
2018-03-24T06:24:32.232Z,12.77
2018-03-24T06:26:59.951Z,13.60
2018-03-24T06:29:27.512Z,20.33
2018-03-24T06:31:57.671Z,12.87
2018-03-24T06:34:25.313Z,16.17
2018-03-24T06:39:50.100Z,15.60
2018-03-24T06:42:17.640Z,14.07
2018-03-24T06:44:45.287Z,13.47
2018-03-24T06:47:12.853Z,24.73
2018-03-24T06:49:40.395Z,15.60
2018-03-24T06:52:08.870Z,19.67
2018-03-24T06:54:36.725Z,20.13
2018-03-24T06:57:04.604Z,12.70
2018-03-24T06:59:32.592Z,12.90
2018-03-24T07:02:01.272Z,15.10
2018-03-24T07:04:29.633Z,12.00
2018-03-24T07:06:58.002Z,14.43
2018-03-24T07:09:25.582Z,12.17
2018-03-24T07:11:53.460Z,13.73
2018-03-24T07:14:21.048Z,11.37
2018-03-24T07:16:48.600Z,10.07
2018-03-24T07:19:16.201Z,11.80
2018-03-24T07:21:43.749Z,14.57
2018-03-24T07:24:11.335Z,12.10
2018-03-24T07:26:38.918Z,12.03
2018-03-24T07:29:06.494Z,10.70
2018-03-24T07:31:34.035Z,20.23
2018-03-24T07:34:01.637Z,15.77
2018-03-24T07:36:30.885Z,21.50
2018-03-24T07:38:58.441Z,32.13
2018-03-24T07:41:26.321Z,16.37
2018-03-24T07:43:54.453Z,17.03
2018-03-24T07:46:22.254Z,13.43
2018-03-24T07:48:49.821Z,19.63
2018-03-24T07:51:17.684Z,14.27
2018-03-24T07:53:45.289Z,23.30
2018-03-24T07:56:13.415Z,9.93
2018-03-24T07:58:41.009Z,18.33
2018-03-24T08:01:08.635Z,15.57
2018-03-24T08:03:36.235Z,8.83
2018-03-24T08:06:03.839Z,10.17
2018-03-24T08:08:32.117Z,10.17
2018-03-24T08:11:00.099Z,12.53
2018-03-24T08:13:28.796Z,11.90
2018-03-24T08:15:56.345Z,12.27
2018-03-24T08:18:23.952Z,11.03
2018-03-24T08:20:51.495Z,10.10
2018-03-24T08:23:20.034Z,10.97
2018-03-24T08:25:47.584Z,10.97
2018-03-24T08:28:15.176Z,10.00
2018-03-24T08:30:43.163Z,15.73
2018-03-24T08:33:11.084Z,12.20
2018-03-24T08:35:38.671Z,12.00
2018-03-24T08:38:06.261Z,12.97
2018-03-24T08:40:33.808Z,10.90
2018-03-24T08:43:01.394Z,12.13
2018-03-24T08:45:28.935Z,15.27
2018-03-24T08:47:56.533Z,13.17
2018-03-24T08:50:24.086Z,13.43
2018-03-24T08:52:51.738Z,13.63
2018-03-24T08:55:19.291Z,12.87
2018-03-24T08:57:46.900Z,17.87
2018-03-24T09:00:14.496Z,13.27
2018-03-24T09:02:42.054Z,12.80
2018-03-24T09:05:10.074Z,12.50
2018-03-24T09:07:37.730Z,13.50
2018-03-24T09:10:05.475Z,16.10
2018-03-24T09:12:33.372Z,13.03
2018-03-24T09:15:00.951Z,11.87
2018-03-24T09:17:28.853Z,12.83
2018-03-24T09:19:56.395Z,13.37
2018-03-24T09:22:24.512Z,13.50
2018-03-24T09:24:52.100Z,12.77
2018-03-24T09:27:19.648Z,22.60
2018-03-24T09:29:47.991Z,31.23
2018-03-24T09:32:15.541Z,22.17
2018-03-24T09:34:43.136Z,15.30
2018-03-24T09:37:10.720Z,14.57
2018-03-24T09:39:38.969Z,23.30
2018-03-24T09:42:06.577Z,38.93
2018-03-24T09:44:34.698Z,36.93
2018-03-24T09:47:02.297Z,31.53
2018-03-24T09:49:29.849Z,31.63
2018-03-24T09:51:57.450Z,25.10
2018-03-24T09:54:25.030Z,17.93
2018-03-24T09:56:52.587Z,27.50
2018-03-24T09:59:20.212Z,24.03
2018-03-24T10:01:47.769Z,21.17
2018-03-24T10:04:15.698Z,20.20
2018-03-24T10:06:43.614Z,12.40
2018-03-24T10:09:12.280Z,19.43
2018-03-24T10:11:39.936Z,16.30
2018-03-24T10:14:07.498Z,16.67
2018-03-24T10:16:35.105Z,17.30
2018-03-24T10:19:02.663Z,14.13
2018-03-24T10:24:30.765Z,14.50
2018-03-24T10:26:58.740Z,15.27
2018-03-24T10:29:26.297Z,14.57
2018-03-24T10:31:53.907Z,18.70
2018-03-24T10:34:21.753Z,18.97
2018-03-24T10:36:49.368Z,19.60
2018-03-24T10:39:16.916Z,16.90
2018-03-24T10:41:44.477Z,39.50
2018-03-24T10:44:12.565Z,25.13
2018-03-24T10:46:40.161Z,23.17
2018-03-24T10:49:08.027Z,25.07
2018-03-24T10:51:35.571Z,17.90
2018-03-24T10:54:03.236Z,18.83
2018-03-24T10:56:31.817Z,26.47
2018-03-24T10:58:59.399Z,17.27
2018-03-24T11:01:27.019Z,20.83
2018-03-24T11:03:55.363Z,14.80
2018-03-24T11:06:22.909Z,16.70
2018-03-24T11:08:50.471Z,15.03
2018-03-24T11:11:18.028Z,14.90
2018-03-24T11:13:45.627Z,13.47
2018-03-24T11:16:13.181Z,15.03
2018-03-24T11:18:40.787Z,13.17
2018-03-24T11:21:08.339Z,20.67
2018-03-24T11:23:36.864Z,12.47
2018-03-24T11:26:04.790Z,14.57
2018-03-24T11:28:32.535Z,11.93
2018-03-24T11:31:00.084Z,11.07
2018-03-24T11:33:27.671Z,13.10
2018-03-24T11:35:56.805Z,14.27
2018-03-24T11:38:25.030Z,16.80
2018-03-24T11:40:52.594Z,11.30
2018-03-24T11:43:20.167Z,14.53
2018-03-24T11:45:47.767Z,11.03
2018-03-24T11:48:15.316Z,10.60
2018-03-24T11:50:42.907Z,9.83
2018-03-24T11:53:10.573Z,12.37
2018-03-24T11:55:38.169Z,12.73
2018-03-24T11:58:06.695Z,11.93
2018-03-24T12:00:34.247Z,9.77
2018-03-24T12:03:01.843Z,18.67
2018-03-24T12:05:30.601Z,12.43
2018-03-24T12:07:58.817Z,12.93
2018-03-24T12:10:27.084Z,10.70
2018-03-24T12:12:54.687Z,7.27
2018-03-24T12:15:22.276Z,13.70
2018-03-24T12:17:49.825Z,9.40
2018-03-24T12:20:17.435Z,10.23
2018-03-24T12:22:45.042Z,13.67
2018-03-24T12:25:12.654Z,12.10
2018-03-24T12:27:40.204Z,13.37
2018-03-24T12:30:08.197Z,8.80
2018-03-24T12:32:36.515Z,7.93
2018-03-24T12:35:04.883Z,10.47
2018-03-24T12:37:32.477Z,7.53
2018-03-24T12:40:00.063Z,10.13
2018-03-24T12:42:27.647Z,7.93
2018-03-24T12:44:55.377Z,17.20
2018-03-24T12:47:22.967Z,8.57
2018-03-24T12:49:51.357Z,9.60
2018-03-24T12:52:19.472Z,13.77
2018-03-24T12:54:47.029Z,11.20
2018-03-24T12:57:14.623Z,11.10
2018-03-24T12:59:42.221Z,10.20
2018-03-24T13:02:09.767Z,8.70
2018-03-24T13:04:37.654Z,10.77
2018-03-24T13:07:05.429Z,11.17
2018-03-24T13:09:33.487Z,11.27
2018-03-24T13:12:01.598Z,9.50
2018-03-24T13:14:29.195Z,9.87
2018-03-24T13:16:57.877Z,9.33
2018-03-24T13:19:25.771Z,9.90
2018-03-24T13:21:53.762Z,10.70
2018-03-24T13:24:21.347Z,8.30
2018-03-24T13:26:49.275Z,7.57
2018-03-24T13:29:17.586Z,7.90
2018-03-24T13:31:45.182Z,7.43
2018-03-24T13:34:13.013Z,9.07
2018-03-24T13:36:40.702Z,7.57
2018-03-24T13:39:08.245Z,7.60
2018-03-24T13:41:35.897Z,9.67
2018-03-24T13:44:05.188Z,7.73
2018-03-24T13:46:32.779Z,9.83
2018-03-24T13:49:00.334Z,8.00
2018-03-24T13:51:27.932Z,13.20
2018-03-24T13:53:55.481Z,9.87
2018-03-24T13:56:23.870Z,9.57
2018-03-24T13:58:51.443Z,11.73
2018-03-24T14:01:19.584Z,9.23
2018-03-24T14:03:48.634Z,10.17
2018-03-24T14:06:16.247Z,11.73
2018-03-24T14:08:44.824Z,11.00
2018-03-24T14:11:13.216Z,22.60
2018-03-24T14:13:42.084Z,16.37
2018-03-24T14:16:10.326Z,15.13
2018-03-24T14:18:37.885Z,13.33
2018-03-24T14:21:06.401Z,8.80
2018-03-24T14:23:34.690Z,10.27
2018-03-24T14:26:02.248Z,10.13
2018-03-24T14:28:30.132Z,13.70
2018-03-24T14:30:58.136Z,13.53
2018-03-24T14:33:26.252Z,10.53
2018-03-24T14:35:53.969Z,12.77
2018-03-24T14:38:21.516Z,9.60
2018-03-24T14:40:49.137Z,13.30
2018-03-24T14:43:17.163Z,17.00
2018-03-24T14:45:46.782Z,15.30
2018-03-24T14:48:16.127Z,15.87
2018-03-24T14:50:44.552Z,14.73
2018-03-24T14:53:12.979Z,21.03
2018-03-24T14:55:40.544Z,16.90
2018-03-24T14:58:08.131Z,22.00
2018-03-24T15:00:37.744Z,21.57
2018-03-24T15:03:06.022Z,20.20
2018-03-24T15:05:33.964Z,21.83
2018-03-24T15:08:01.644Z,26.77
2018-03-24T15:10:29.240Z,26.00
2018-03-24T15:12:57.194Z,25.90
2018-03-24T15:15:25.623Z,19.23
2018-03-24T15:17:54.440Z,20.57
2018-03-24T15:20:22.039Z,21.73
2018-03-24T15:22:49.593Z,26.93
2018-03-24T15:25:17.815Z,30.67
2018-03-24T15:27:45.374Z,28.17
2018-03-24T15:30:24.804Z,24.47
2018-03-24T15:32:53.230Z,26.23
2018-03-24T15:35:34.397Z,35.80
2018-03-24T15:38:02.408Z,28.80
2018-03-24T15:40:30.006Z,23.47
2018-03-24T15:42:59.576Z,28.30
2018-03-24T15:45:27.994Z,29.20
2018-03-24T15:47:55.568Z,26.33
2018-03-24T15:50:23.288Z,26.17
2018-03-24T15:52:52.180Z,24.03
2018-03-24T15:55:21.714Z,26.00
2018-03-24T15:57:49.313Z,24.07
2018-03-24T16:00:17.724Z,22.70
2018-03-24T16:02:46.301Z,24.73
2018-03-24T16:05:14.606Z,23.30
2018-03-24T16:07:42.377Z,23.30
2018-03-24T16:10:11.716Z,25.13
2018-03-24T16:12:40.551Z,22.83
2018-03-24T16:15:08.579Z,29.67
2018-03-24T16:17:36.854Z,26.80
2018-03-24T16:20:05.120Z,24.73
2018-03-24T16:22:33.222Z,22.20
2018-03-24T16:25:01.193Z,26.07
2018-03-24T16:27:29.442Z,26.90
2018-03-24T16:29:58.253Z,37.73
2018-03-24T16:32:26.599Z,47.73
2018-03-24T16:34:55.504Z,30.77
2018-03-24T16:37:24.291Z,52.13
2018-03-24T16:39:52.362Z,49.37
2018-03-24T16:42:21.255Z,52.80
2018-03-24T16:44:49.940Z,68.93
2018-03-24T16:47:19.226Z,43.03
2018-03-24T16:49:47.858Z,37.97
2018-03-24T16:52:17.611Z,45.20
2018-03-24T16:54:47.100Z,34.30
2018-03-24T16:57:16.061Z,35.57
2018-03-24T16:59:44.759Z,35.70
2018-03-24T17:02:15.796Z,31.40
2018-03-24T17:04:46.170Z,33.80
2018-03-24T17:07:14.449Z,32.60
2018-03-24T17:09:42.958Z,27.10
2018-03-24T17:12:11.617Z,31.90
2018-03-24T17:14:40.601Z,32.57
2018-03-24T17:17:09.835Z,32.53
2018-03-24T17:19:40.131Z,52.00
2018-03-24T17:22:08.866Z,45.23
2018-03-24T17:24:38.372Z,60.17
2018-03-24T17:27:08.267Z,68.27
2018-03-24T17:29:36.540Z,58.13
2018-03-24T17:32:05.090Z,53.30
2018-03-24T17:34:33.701Z,47.93
2018-03-24T17:37:01.988Z,44.10
2018-03-24T17:39:30.224Z,47.10
2018-03-24T17:42:00.181Z,43.97
2018-03-24T17:44:29.398Z,43.47
2018-03-24T17:46:58.433Z,47.53
2018-03-24T17:49:27.197Z,40.57
2018-03-24T17:51:56.519Z,39.60
2018-03-24T17:54:25.413Z,44.00
2018-03-24T17:56:53.819Z,38.53
2018-03-24T17:59:23.021Z,39.07
2018-03-24T18:01:51.780Z,45.07
2018-03-24T18:04:20.774Z,38.60
2018-03-24T18:06:50.935Z,38.10
2018-03-24T18:09:19.390Z,38.17
2018-03-24T18:11:48.827Z,38.30
2018-03-24T18:14:18.285Z,37.17
2018-03-24T18:16:47.207Z,32.30
2018-03-24T18:19:15.952Z,35.03
2018-03-24T18:21:45.808Z,32.77
2018-03-24T18:24:14.345Z,28.33
2018-03-24T18:26:46.345Z,33.50
2018-03-24T18:29:14.622Z,32.80
2018-03-24T18:31:44.548Z,29.40
2018-03-24T18:34:14.718Z,29.53
2018-03-24T18:36:43.231Z,30.70
2018-03-24T18:39:11.515Z,32.53
2018-03-24T18:41:40.108Z,33.20
2018-03-24T18:44:09.571Z,29.90
2018-03-24T18:46:38.888Z,29.77
2018-03-24T18:49:09.492Z,31.63
2018-03-24T18:51:38.314Z,28.70
2018-03-24T18:54:08.147Z,29.77
2018-03-24T18:56:38.167Z,29.53
2018-03-24T18:59:07.385Z,31.90
2018-03-24T19:01:36.469Z,29.27
2018-03-24T19:04:05.808Z,27.33
2018-03-24T19:06:36.653Z,25.80
2018-03-24T19:09:04.830Z,21.37
2018-03-24T19:11:33.961Z,28.27
2018-03-24T19:14:02.725Z,29.13
2018-03-24T19:16:31.107Z,29.80
2018-03-24T19:19:00.781Z,24.67
2018-03-24T19:21:28.938Z,27.87
2018-03-24T19:23:59.959Z,28.67
2018-03-24T19:26:29.515Z,27.40
2018-03-24T19:28:58.497Z,29.60
2018-03-24T19:31:28.753Z,29.60
2018-03-24T19:33:57.714Z,25.90
2018-03-24T19:36:26.393Z,28.10
2018-03-24T19:38:55.954Z,29.13
2018-03-24T19:41:25.311Z,32.23
2018-03-24T19:43:54.091Z,30.57
2018-03-24T19:46:23.855Z,28.20
2018-03-24T19:48:52.639Z,29.27
2018-03-24T19:51:23.087Z,29.80
2018-03-24T19:53:52.106Z,27.27
2018-03-24T19:56:20.283Z,30.37
2018-03-24T19:58:49.422Z,28.87
2018-03-24T20:01:17.642Z,30.60
2018-03-24T20:03:45.991Z,26.00
2018-03-24T20:06:14.918Z,29.20
2018-03-24T20:08:43.863Z,26.60
2018-03-24T20:11:13.211Z,30.73
2018-03-24T20:13:41.711Z,28.63
2018-03-24T20:16:09.965Z,24.47
2018-03-24T20:18:39.263Z,29.50
2018-03-24T20:21:07.786Z,29.93
2018-03-24T20:23:35.922Z,30.67
2018-03-24T20:26:04.704Z,30.90
2018-03-24T20:28:33.991Z,32.50
2018-03-24T20:31:02.387Z,31.70
2018-03-24T20:33:31.008Z,28.97
2018-03-24T20:35:59.757Z,32.97
2018-03-24T20:38:28.666Z,30.67
2018-03-24T20:40:57.118Z,28.33
2018-03-24T20:43:26.046Z,28.40
2018-03-24T20:45:54.489Z,29.87
2018-03-24T20:48:22.870Z,24.97
2018-03-24T20:50:51.863Z,26.40
2018-03-24T20:53:20.243Z,30.17
2018-03-24T20:55:48.929Z,27.70
2018-03-24T20:58:17.610Z,24.87
2018-03-24T21:00:45.893Z,25.37
2018-03-24T21:03:14.472Z,26.50
2018-03-24T21:05:42.433Z,26.30
2018-03-24T21:08:11.008Z,20.43
2018-03-24T21:10:38.989Z,26.47
2018-03-24T21:13:07.300Z,26.60
2018-03-24T21:15:35.522Z,25.80
2018-03-24T21:18:03.176Z,28.77
2018-03-24T21:20:31.507Z,24.27
2018-03-24T21:22:59.879Z,27.30
2018-03-24T21:25:28.144Z,25.20
2018-03-24T21:27:56.097Z,27.00
2018-03-24T21:30:23.687Z,24.70
2018-03-24T21:32:51.274Z,23.97
2018-03-24T21:35:18.870Z,22.97
2018-03-24T21:37:48.295Z,26.37
2018-03-24T21:40:16.124Z,21.90
2018-03-24T21:42:43.711Z,23.07
2018-03-24T21:45:12.204Z,23.83
2018-03-24T21:47:40.272Z,23.30
2018-03-24T21:50:07.888Z,21.30
2018-03-24T21:52:35.442Z,28.10
2018-03-24T21:55:03.996Z,24.63
2018-03-24T21:57:31.594Z,25.30
2018-03-24T21:59:59.149Z,28.27
2018-03-24T22:02:26.741Z,24.10
2018-03-24T22:04:54.332Z,23.60
2018-03-24T22:07:22.490Z,23.90
2018-03-24T22:09:50.031Z,25.07
2018-03-24T22:12:17.623Z,26.10
2018-03-24T22:14:45.227Z,24.37
2018-03-24T22:17:13.621Z,23.07
2018-03-24T22:19:41.216Z,25.23
2018-03-24T22:22:08.820Z,26.37
2018-03-24T22:24:36.372Z,27.60
2018-03-24T22:27:03.961Z,24.23
2018-03-24T22:29:31.586Z,27.27
2018-03-24T22:31:59.132Z,24.37
2018-03-24T22:34:26.732Z,25.10
2018-03-24T22:36:54.306Z,27.07
2018-03-24T22:39:22.156Z,23.70
2018-03-24T22:41:49.706Z,26.73
2018-03-24T22:44:17.524Z,22.67
2018-03-24T22:46:45.130Z,24.40
2018-03-24T22:49:12.680Z,26.23
2018-03-24T22:51:40.284Z,23.30
2018-03-24T22:54:08.512Z,25.33
2018-03-24T22:56:36.451Z,23.27
2018-03-24T22:59:04.008Z,27.90
2018-03-24T23:01:31.592Z,23.90
2018-03-24T23:03:59.200Z,22.57
2018-03-24T23:06:26.830Z,25.57
2018-03-24T23:08:54.979Z,24.43
2018-03-24T23:11:22.524Z,24.13
2018-03-24T23:13:50.113Z,24.93
2018-03-24T23:16:17.707Z,24.33
2018-03-24T23:18:45.300Z,24.23
2018-03-24T23:21:12.873Z,25.57
2018-03-24T23:23:40.828Z,23.43
2018-03-24T23:26:08.437Z,25.97
2018-03-24T23:28:36.176Z,24.90
2018-03-24T23:31:03.772Z,24.83
2018-03-24T23:33:31.331Z,23.10
2018-03-24T23:35:58.924Z,25.03
2018-03-24T23:38:26.472Z,23.10
2018-03-24T23:40:54.033Z,21.93
2018-03-24T23:43:22.307Z,22.23
2018-03-24T23:45:49.901Z,21.03
2018-03-24T23:48:17.451Z,20.13
2018-03-24T23:50:45.061Z,21.00
2018-03-24T23:53:12.612Z,23.70
2018-03-24T23:55:40.207Z,20.87
2018-03-24T23:58:07.806Z,24.03
